Aérodrome :
LOGIN :

S'inscrire | Disclaimer

   EN    FR    IT 

 










Légende :    VFR   VFR Marginal   IFR   IFR Intensif   IFR Très Intensif
Visi : 
Plafond : 
>= 8 km
>= 3000ft
5 à 8 km
1000 à 3000 ft
1500m à 5 km
500 à 1000 ft
800 à 1500m
200 à 500 ft
< 800m
< 200 ft
Symboles :   Orages  Brouillard  Fortes neiges  Fortes précipitations  Vent > 20 kt
SIGMETs :   Divers  Orages  Givrage  Turbulence  Onde Orograph.  Cendres Volcan.







- Altitude de l'aérodrome : 622 ft
- Code IATA : BRS
- Voir les cartes d'approche


EGGD - Bristol Int.

DERNIER METAR :
  • 152020Z AUTO 19004KT 9999 BKN049/// //////CB 11/09 Q1013

METARs EXPIRÉS :
  • 151950Z AUTO 22005KT 9999 SCT036/// //////CB 12/08 Q1013
  • 151920Z AUTO 22005KT 9999 FEW040/// //////CB 12/08 Q1013
  • 151850Z 22005KT 9999 FEW028TCU FEW034 12/07 Q1013
  • 151820Z AUTO 23006KT 9999 NCD 13/07 Q1012
  • 151750Z AUTO 25008KT 9999 NCD 14/07 Q1012

TAF AMD TAF EGGD
Valide du 15 à 19h jusqu'au 16 à 18h UTC


151918Z 1519/1618 25006KT 9999 FEW030
PROB30
TEMPO 1519/1522 8000 SHRA
BECMG 1521/1524 17010KT
PROB30
TEMPO 1600/1608 4000 BR BKN004
BECMG 1606/1609 23012KT
PROB40
TEMPO 1611/1618 22015G25KT 7000 SHRA BKN014
ATIS : +44 1275 473 666
Pas de NOTAMs connus pour ce terrain.



MET'MAP, la Météo Aéronautique d'un coup d'oeil ! - Copyright ORBIFLY Décembre 2007 - Disclaimer

ORBIFLY MET'MAP TEAM :

Programmation & Développement : Alexandra Zaïnal
Conception & Développement : Baudouin d'Aumeries
Co-Programmation & Développement : Marc-Olivier Méhu
Soutien technique & logistique : Manuel Goepfert

Contact : metmap@orbifly.com




SOURCES & CREDITS :

   NOAA